sensor_id;sensor_type;location;lat;lon;timestamp;temperature;humidity
20998;DHT22;10657;51.276;6.390;2023-08-30T00:00:53;16.20;99.90
20998;DHT22;10657;51.276;6.390;2023-08-30T00:03:20;16.10;99.90
20998;DHT22;10657;51.276;6.390;2023-08-30T00:05:46;16.10;99.90
20998;DHT22;10657;51.276;6.390;2023-08-30T00:08:13;16.10;99.90
20998;DHT22;10657;51.276;6.390;2023-08-30T00:10:45;16.10;99.90
20998;DHT22;10657;51.276;6.390;2023-08-30T00:13:12;16.00;99.90
20998;DHT22;10657;51.276;6.390;2023-08-30T00:15:39;16.00;99.90
20998;DHT22;10657;51.276;6.390;2023-08-30T00:18:05;16.00;99.90
20998;DHT22;10657;51.276;6.390;2023-08-30T00:20:33;15.90;99.90
20998;DHT22;10657;51.276;6.390;2023-08-30T00:23:00;15.80;99.90
20998;DHT22;10657;51.276;6.390;2023-08-30T00:25:27;15.80;99.90
20998;DHT22;10657;51.276;6.390;2023-08-30T00:27:53;15.80;99.90
20998;DHT22;10657;51.276;6.390;2023-08-30T00:30:20;15.90;99.90
20998;DHT22;10657;51.276;6.390;2023-08-30T00:32:47;15.90;99.90
20998;DHT22;10657;51.276;6.390;2023-08-30T00:35:14;15.90;99.90
20998;DHT22;10657;51.276;6.390;2023-08-30T00:37:40;15.90;99.90
20998;DHT22;10657;51.276;6.390;2023-08-30T00:40:07;16.00;99.90
20998;DHT22;10657;51.276;6.390;2023-08-30T00:42:34;15.90;99.90
20998;DHT22;10657;51.276;6.390;2023-08-30T00:45:01;15.90;99.90
20998;DHT22;10657;51.276;6.390;2023-08-30T00:47:28;15.90;99.90
20998;DHT22;10657;51.276;6.390;2023-08-30T00:49:54;15.90;99.90
20998;DHT22;10657;51.276;6.390;2023-08-30T00:52:21;15.90;99.90
20998;DHT22;10657;51.276;6.390;2023-08-30T00:54:48;15.90;99.90
20998;DHT22;10657;51.276;6.390;2023-08-30T00:57:15;15.80;99.90
20998;DHT22;10657;51.276;6.390;2023-08-30T00:59:42;15.70;99.90
20998;DHT22;10657;51.276;6.390;2023-08-30T01:02:09;15.70;99.90
20998;DHT22;10657;51.276;6.390;2023-08-30T01:04:36;15.70;99.90
20998;DHT22;10657;51.276;6.390;2023-08-30T01:07:02;15.70;99.90
20998;DHT22;10657;51.276;6.390;2023-08-30T01:09:29;15.60;99.90
20998;DHT22;10657;51.276;6.390;2023-08-30T01:12:00;15.70;99.90
20998;DHT22;10657;51.276;6.390;2023-08-30T01:17:30;15.60;99.90
20998;DHT22;10657;51.276;6.390;2023-08-30T01:20:04;15.70;99.90
20998;DHT22;10657;51.276;6.390;2023-08-30T01:27:42;15.70;99.90
20998;DHT22;10657;51.276;6.390;2023-08-30T01:30:10;15.70;99.90
20998;DHT22;10657;51.276;6.390;2023-08-30T01:32:38;15.60;99.90
20998;DHT22;10657;51.276;6.390;2023-08-30T01:35:06;15.60;99.90
20998;DHT22;10657;51.276;6.390;2023-08-30T01:37:34;15.70;99.90
20998;DHT22;10657;51.276;6.390;2023-08-30T01:40:03;15.70;99.90
20998;DHT22;10657;51.276;6.390;2023-08-30T01:42:32;15.60;99.90
20998;DHT22;10657;51.276;6.390;2023-08-30T01:45:01;15.60;99.90
20998;DHT22;10657;51.276;6.390;2023-08-30T01:47:30;15.40;99.90
20998;DHT22;10657;51.276;6.390;2023-08-30T01:49:58;15.30;99.90
20998;DHT22;10657;51.276;6.390;2023-08-30T01:52:26;15.40;99.90
20998;DHT22;10657;51.276;6.390;2023-08-30T01:54:53;15.30;99.90
20998;DHT22;10657;51.276;6.390;2023-08-30T01:57:20;15.30;99.90
20998;DHT22;10657;51.276;6.390;2023-08-30T01:59:46;15.40;99.90
20998;DHT22;10657;51.276;6.390;2023-08-30T02:02:13;15.40;99.90
20998;DHT22;10657;51.276;6.390;2023-08-30T02:04:40;15.40;99.90
20998;DHT22;10657;51.276;6.390;2023-08-30T02:07:17;15.40;99.90
20998;DHT22;10657;51.276;6.390;2023-08-30T02:09:53;15.40;99.90
20998;DHT22;10657;51.276;6.390;2023-08-30T02:12:22;15.30;99.90
20998;DHT22;10657;51.276;6.390;2023-08-30T02:14:52;15.30;99.90
20998;DHT22;10657;51.276;6.390;2023-08-30T02:17:19;15.30;99.90
20998;DHT22;10657;51.276;6.390;2023-08-30T02:19:47;15.30;99.90
20998;DHT22;10657;51.276;6.390;2023-08-30T02:22:14;15.30;99.90
20998;DHT22;10657;51.276;6.390;2023-08-30T02:24:41;15.20;99.90
20998;DHT22;10657;51.276;6.390;2023-08-30T02:27:07;15.20;99.90
20998;DHT22;10657;51.276;6.390;2023-08-30T02:29:34;15.20;99.90
20998;DHT22;10657;51.276;6.390;2023-08-30T02:32:01;15.30;99.90
20998;DHT22;10657;51.276;6.390;2023-08-30T02:34:27;15.30;99.90
20998;DHT22;10657;51.276;6.390;2023-08-30T02:36:54;15.30;99.90
20998;DHT22;10657;51.276;6.390;2023-08-30T02:39:21;15.30;99.90
20998;DHT22;10657;51.276;6.390;2023-08-30T02:41:47;15.30;99.90
20998;DHT22;10657;51.276;6.390;2023-08-30T02:44:14;15.20;99.90
20998;DHT22;10657;51.276;6.390;2023-08-30T02:46:41;15.10;99.90
20998;DHT22;10657;51.276;6.390;2023-08-30T02:49:08;15.20;99.90
20998;DHT22;10657;51.276;6.390;2023-08-30T02:51:35;15.30;99.90
20998;DHT22;10657;51.276;6.390;2023-08-30T02:54:02;15.30;99.90
20998;DHT22;10657;51.276;6.390;2023-08-30T02:56:29;15.30;99.90
20998;DHT22;10657;51.276;6.390;2023-08-30T02:58:56;15.30;99.90
20998;DHT22;10657;51.276;6.390;2023-08-30T03:01:22;15.30;99.90
20998;DHT22;10657;51.276;6.390;2023-08-30T03:03:49;15.30;99.90
20998;DHT22;10657;51.276;6.390;2023-08-30T03:06:16;15.20;99.90
20998;DHT22;10657;51.276;6.390;2023-08-30T03:08:42;15.20;99.90
20998;DHT22;10657;51.276;6.390;2023-08-30T03:11:13;15.20;99.90
20998;DHT22;10657;51.276;6.390;2023-08-30T03:13:39;15.20;99.90
20998;DHT22;10657;51.276;6.390;2023-08-30T03:16:13;15.20;99.90
20998;DHT22;10657;51.276;6.390;2023-08-30T03:18:41;15.20;99.90
20998;DHT22;10657;51.276;6.390;2023-08-30T03:21:08;15.20;99.90
20998;DHT22;10657;51.276;6.390;2023-08-30T03:23:35;15.20;99.90
20998;DHT22;10657;51.276;6.390;2023-08-30T03:26:09;15.10;99.90
20998;DHT22;10657;51.276;6.390;2023-08-30T03:28:36;15.20;99.90
20998;DHT22;10657;51.276;6.390;2023-08-30T03:31:20;15.20;99.90
20998;DHT22;10657;51.276;6.390;2023-08-30T03:33:48;15.10;99.90
20998;DHT22;10657;51.276;6.390;2023-08-30T03:36:18;15.00;99.90
20998;DHT22;10657;51.276;6.390;2023-08-30T03:38:45;14.90;99.90
20998;DHT22;10657;51.276;6.390;2023-08-30T03:41:12;14.90;99.90
20998;DHT22;10657;51.276;6.390;2023-08-30T03:43:39;14.90;99.90
20998;DHT22;10657;51.276;6.390;2023-08-30T03:46:05;14.90;99.90
20998;DHT22;10657;51.276;6.390;2023-08-30T03:48:32;14.80;99.90
20998;DHT22;10657;51.276;6.390;2023-08-30T03:50:59;14.90;99.90
20998;DHT22;10657;51.276;6.390;2023-08-30T03:53:26;14.90;99.90
20998;DHT22;10657;51.276;6.390;2023-08-30T03:55:53;14.90;99.90
20998;DHT22;10657;51.276;6.390;2023-08-30T03:58:19;15.00;99.90
20998;DHT22;10657;51.276;6.390;2023-08-30T04:00:46;15.00;99.90
20998;DHT22;10657;51.276;6.390;2023-08-30T04:03:14;15.00;99.90
20998;DHT22;10657;51.276;6.390;2023-08-30T04:05:42;15.00;99.90
20998;DHT22;10657;51.276;6.390;2023-08-30T04:08:09;15.00;99.90
20998;DHT22;10657;51.276;6.390;2023-08-30T04:10:40;15.10;99.90
20998;DHT22;10657;51.276;6.390;2023-08-30T04:13:08;15.10;99.90
20998;DHT22;10657;51.276;6.390;2023-08-30T04:15:38;15.10;99.90
20998;DHT22;10657;51.276;6.390;2023-08-30T04:18:06;15.10;99.90
20998;DHT22;10657;51.276;6.390;2023-08-30T04:20:34;15.10;99.90
20998;DHT22;10657;51.276;6.390;2023-08-30T04:23:01;15.10;99.90
20998;DHT22;10657;51.276;6.390;2023-08-30T04:25:29;15.10;99.90
20998;DHT22;10657;51.276;6.390;2023-08-30T04:27:56;15.10;99.90
20998;DHT22;10657;51.276;6.390;2023-08-30T04:30:23;15.10;99.90
20998;DHT22;10657;51.276;6.390;2023-08-30T04:32:50;15.10;99.90
20998;DHT22;10657;51.276;6.390;2023-08-30T04:35:17;15.10;99.90
20998;DHT22;10657;51.276;6.390;2023-08-30T04:37:43;15.10;99.90
20998;DHT22;10657;51.276;6.390;2023-08-30T04:40:11;15.10;99.90
20998;DHT22;10657;51.276;6.390;2023-08-30T04:42:38;15.10;99.90
20998;DHT22;10657;51.276;6.390;2023-08-30T04:45:07;15.10;99.90
20998;DHT22;10657;51.276;6.390;2023-08-30T04:47:34;15.20;99.90
20998;DHT22;10657;51.276;6.390;2023-08-30T04:50:00;15.20;99.90
20998;DHT22;10657;51.276;6.390;2023-08-30T04:52:27;15.20;99.90
20998;DHT22;10657;51.276;6.390;2023-08-30T04:54:54;15.20;99.90
20998;DHT22;10657;51.276;6.390;2023-08-30T04:57:21;15.20;99.90
20998;DHT22;10657;51.276;6.390;2023-08-30T04:59:47;15.30;99.90
20998;DHT22;10657;51.276;6.390;2023-08-30T05:02:14;15.30;99.90
20998;DHT22;10657;51.276;6.390;2023-08-30T05:04:41;15.30;99.90
20998;DHT22;10657;51.276;6.390;2023-08-30T05:07:08;15.30;99.90
20998;DHT22;10657;51.276;6.390;2023-08-30T05:09:34;15.30;99.90
20998;DHT22;10657;51.276;6.390;2023-08-30T05:12:01;15.30;99.90
20998;DHT22;10657;51.276;6.390;2023-08-30T05:14:28;15.40;99.90
20998;DHT22;10657;51.276;6.390;2023-08-30T05:16:55;15.40;99.90
20998;DHT22;10657;51.276;6.390;2023-08-30T05:19:22;15.40;99.90
20998;DHT22;10657;51.276;6.390;2023-08-30T05:21:49;15.40;99.90
20998;DHT22;10657;51.276;6.390;2023-08-30T05:24:21;15.40;99.90
20998;DHT22;10657;51.276;6.390;2023-08-30T05:26:48;15.50;99.90
20998;DHT22;10657;51.276;6.390;2023-08-30T05:29:15;15.40;99.90
20998;DHT22;10657;51.276;6.390;2023-08-30T05:31:42;15.40;99.90
20998;DHT22;10657;51.276;6.390;2023-08-30T05:34:10;15.50;99.90
20998;DHT22;10657;51.276;6.390;2023-08-30T05:36:37;15.40;99.90
20998;DHT22;10657;51.276;6.390;2023-08-30T05:39:05;15.40;99.90
20998;DHT22;10657;51.276;6.390;2023-08-30T05:41:32;15.50;99.90
20998;DHT22;10657;51.276;6.390;2023-08-30T05:43:59;15.40;99.90
20998;DHT22;10657;51.276;6.390;2023-08-30T05:46:26;15.40;99.90
20998;DHT22;10657;51.276;6.390;2023-08-30T05:48:52;15.40;99.90
20998;DHT22;10657;51.276;6.390;2023-08-30T05:51:21;15.50;99.90
20998;DHT22;10657;51.276;6.390;2023-08-30T05:53:47;15.50;99.90
20998;DHT22;10657;51.276;6.390;2023-08-30T05:56:14;15.50;99.90
20998;DHT22;10657;51.276;6.390;2023-08-30T05:58:41;15.50;99.90
20998;DHT22;10657;51.276;6.390;2023-08-30T06:01:07;15.50;99.90
20998;DHT22;10657;51.276;6.390;2023-08-30T06:03:34;15.50;99.90
20998;DHT22;10657;51.276;6.390;2023-08-30T06:06:01;15.50;99.90
20998;DHT22;10657;51.276;6.390;2023-08-30T06:08:28;15.50;99.90
20998;DHT22;10657;51.276;6.390;2023-08-30T06:10:55;15.50;99.90
20998;DHT22;10657;51.276;6.390;2023-08-30T06:13:22;15.60;99.90
20998;DHT22;10657;51.276;6.390;2023-08-30T06:15:52;15.60;99.90
20998;DHT22;10657;51.276;6.390;2023-08-30T06:18:19;15.70;99.90
20998;DHT22;10657;51.276;6.390;2023-08-30T06:20:46;15.70;99.90
20998;DHT22;10657;51.276;6.390;2023-08-30T06:23:14;15.60;99.90
20998;DHT22;10657;51.276;6.390;2023-08-30T06:25:41;15.60;99.90
20998;DHT22;10657;51.276;6.390;2023-08-30T06:28:08;15.60;99.90
20998;DHT22;10657;51.276;6.390;2023-08-30T06:30:35;15.70;99.90
20998;DHT22;10657;51.276;6.390;2023-08-30T06:33:02;15.70;99.90
20998;DHT22;10657;51.276;6.390;2023-08-30T06:35:29;15.60;99.90
20998;DHT22;10657;51.276;6.390;2023-08-30T06:37:56;15.60;99.90
20998;DHT22;10657;51.276;6.390;2023-08-30T06:40:23;15.60;99.90
20998;DHT22;10657;51.276;6.390;2023-08-30T06:42:49;15.60;99.90
20998;DHT22;10657;51.276;6.390;2023-08-30T06:45:16;15.60;99.90
20998;DHT22;10657;51.276;6.390;2023-08-30T06:47:43;15.70;99.90
20998;DHT22;10657;51.276;6.390;2023-08-30T06:50:10;15.80;99.90
20998;DHT22;10657;51.276;6.390;2023-08-30T06:52:36;15.90;99.90
20998;DHT22;10657;51.276;6.390;2023-08-30T06:55:04;16.00;99.90
20998;DHT22;10657;51.276;6.390;2023-08-30T06:57:30;16.20;99.90
20998;DHT22;10657;51.276;6.390;2023-08-30T06:59:57;16.20;99.90
20998;DHT22;10657;51.276;6.390;2023-08-30T07:02:25;16.30;99.90
20998;DHT22;10657;51.276;6.390;2023-08-30T07:04:52;16.40;99.90
20998;DHT22;10657;51.276;6.390;2023-08-30T07:07:19;16.50;99.90
20998;DHT22;10657;51.276;6.390;2023-08-30T07:09:46;16.40;99.90
20998;DHT22;10657;51.276;6.390;2023-08-30T07:12:12;16.40;99.90
20998;DHT22;10657;51.276;6.390;2023-08-30T07:14:39;16.50;99.90
20998;DHT22;10657;51.276;6.390;2023-08-30T07:17:06;16.40;99.90
20998;DHT22;10657;51.276;6.390;2023-08-30T07:19:33;16.40;99.90
20998;DHT22;10657;51.276;6.390;2023-08-30T07:22:00;16.50;99.90
20998;DHT22;10657;51.276;6.390;2023-08-30T07:24:27;16.60;99.90
20998;DHT22;10657;51.276;6.390;2023-08-30T07:26:53;16.50;99.90
20998;DHT22;10657;51.276;6.390;2023-08-30T07:29:20;16.60;99.90
20998;DHT22;10657;51.276;6.390;2023-08-30T07:31:48;16.60;99.90
20998;DHT22;10657;51.276;6.390;2023-08-30T07:34:17;16.70;99.90
20998;DHT22;10657;51.276;6.390;2023-08-30T07:36:44;16.80;99.90
20998;DHT22;10657;51.276;6.390;2023-08-30T07:39:14;16.90;99.90
20998;DHT22;10657;51.276;6.390;2023-08-30T07:41:41;16.90;99.90
20998;DHT22;10657;51.276;6.390;2023-08-30T07:44:08;17.10;99.90
20998;DHT22;10657;51.276;6.390;2023-08-30T07:46:35;17.00;99.90
20998;DHT22;10657;51.276;6.390;2023-08-30T07:49:02;17.10;99.90
20998;DHT22;10657;51.276;6.390;2023-08-30T07:51:29;17.10;99.90
20998;DHT22;10657;51.276;6.390;2023-08-30T07:53:56;17.10;99.90
20998;DHT22;10657;51.276;6.390;2023-08-30T07:56:22;17.20;99.90
20998;DHT22;10657;51.276;6.390;2023-08-30T07:58:49;17.20;99.90
20998;DHT22;10657;51.276;6.390;2023-08-30T08:01:16;17.30;99.90
20998;DHT22;10657;51.276;6.390;2023-08-30T08:03:42;17.40;99.90
20998;DHT22;10657;51.276;6.390;2023-08-30T08:06:29;17.50;99.90
20998;DHT22;10657;51.276;6.390;2023-08-30T08:08:56;17.50;99.90
20998;DHT22;10657;51.276;6.390;2023-08-30T08:11:23;17.40;99.90
20998;DHT22;10657;51.276;6.390;2023-08-30T08:13:49;17.20;99.90
20998;DHT22;10657;51.276;6.390;2023-08-30T08:16:16;17.10;99.90
20998;DHT22;10657;51.276;6.390;2023-08-30T08:18:43;17.10;99.90
20998;DHT22;10657;51.276;6.390;2023-08-30T08:21:09;17.10;99.90
20998;DHT22;10657;51.276;6.390;2023-08-30T08:23:36;17.00;99.90
20998;DHT22;10657;51.276;6.390;2023-08-30T08:26:03;17.00;99.90
20998;DHT22;10657;51.276;6.390;2023-08-30T08:28:29;16.90;99.90
20998;DHT22;10657;51.276;6.390;2023-08-30T08:30:56;16.90;99.90
20998;DHT22;10657;51.276;6.390;2023-08-30T08:33:23;16.90;99.90
20998;DHT22;10657;51.276;6.390;2023-08-30T08:35:50;16.90;99.90
20998;DHT22;10657;51.276;6.390;2023-08-30T08:38:17;16.90;99.90
20998;DHT22;10657;51.276;6.390;2023-08-30T08:40:44;16.80;99.90
20998;DHT22;10657;51.276;6.390;2023-08-30T08:43:11;16.70;99.90
20998;DHT22;10657;51.276;6.390;2023-08-30T08:45:39;16.60;99.90
20998;DHT22;10657;51.276;6.390;2023-08-30T08:48:06;16.40;99.90
20998;DHT22;10657;51.276;6.390;2023-08-30T08:50:34;16.10;99.90
20998;DHT22;10657;51.276;6.390;2023-08-30T08:53:02;15.90;99.90
20998;DHT22;10657;51.276;6.390;2023-08-30T08:55:30;15.90;99.90
20998;DHT22;10657;51.276;6.390;2023-08-30T08:57:58;15.90;99.90
20998;DHT22;10657;51.276;6.390;2023-08-30T09:00:26;15.90;99.90
20998;DHT22;10657;51.276;6.390;2023-08-30T09:02:54;16.00;99.90
20998;DHT22;10657;51.276;6.390;2023-08-30T09:05:21;16.10;99.90
20998;DHT22;10657;51.276;6.390;2023-08-30T09:07:49;16.30;99.90
20998;DHT22;10657;51.276;6.390;2023-08-30T09:10:20;16.30;99.90
20998;DHT22;10657;51.276;6.390;2023-08-30T09:12:48;16.40;99.90
20998;DHT22;10657;51.276;6.390;2023-08-30T09:15:15;16.30;99.90
20998;DHT22;10657;51.276;6.390;2023-08-30T09:17:43;16.40;99.90
20998;DHT22;10657;51.276;6.390;2023-08-30T09:20:11;16.50;99.90
20998;DHT22;10657;51.276;6.390;2023-08-30T09:22:42;16.50;99.90
20998;DHT22;10657;51.276;6.390;2023-08-30T09:25:11;16.50;99.90
20998;DHT22;10657;51.276;6.390;2023-08-30T09:27:38;16.50;99.90
20998;DHT22;10657;51.276;6.390;2023-08-30T09:30:09;16.70;99.90
20998;DHT22;10657;51.276;6.390;2023-08-30T09:32:41;16.60;99.90
20998;DHT22;10657;51.276;6.390;2023-08-30T09:35:09;16.50;99.90
20998;DHT22;10657;51.276;6.390;2023-08-30T09:37:36;16.50;99.90
20998;DHT22;10657;51.276;6.390;2023-08-30T09:40:03;16.50;99.90
20998;DHT22;10657;51.276;6.390;2023-08-30T09:42:31;16.50;99.90
20998;DHT22;10657;51.276;6.390;2023-08-30T09:44:57;16.40;99.90
20998;DHT22;10657;51.276;6.390;2023-08-30T09:47:25;16.30;99.90
20998;DHT22;10657;51.276;6.390;2023-08-30T09:49:56;16.30;99.90
20998;DHT22;10657;51.276;6.390;2023-08-30T09:52:24;16.20;99.90
20998;DHT22;10657;51.276;6.390;2023-08-30T09:54:52;16.20;99.90
20998;DHT22;10657;51.276;6.390;2023-08-30T09:57:19;16.10;99.90
20998;DHT22;10657;51.276;6.390;2023-08-30T09:59:48;15.90;99.90
20998;DHT22;10657;51.276;6.390;2023-08-30T10:02:15;15.70;99.90
20998;DHT22;10657;51.276;6.390;2023-08-30T10:04:44;15.80;99.90
20998;DHT22;10657;51.276;6.390;2023-08-30T10:07:12;15.60;99.90
20998;DHT22;10657;51.276;6.390;2023-08-30T10:09:39;15.50;99.90
20998;DHT22;10657;51.276;6.390;2023-08-30T10:12:26;15.40;99.90
20998;DHT22;10657;51.276;6.390;2023-08-30T10:14:53;15.40;99.90
20998;DHT22;10657;51.276;6.390;2023-08-30T10:17:23;15.30;99.90
20998;DHT22;10657;51.276;6.390;2023-08-30T10:19:54;15.20;99.90
20998;DHT22;10657;51.276;6.390;2023-08-30T10:22:22;15.30;99.90
20998;DHT22;10657;51.276;6.390;2023-08-30T10:24:59;15.20;99.90
20998;DHT22;10657;51.276;6.390;2023-08-30T10:27:41;15.20;99.90
20998;DHT22;10657;51.276;6.390;2023-08-30T10:30:09;15.40;99.90
20998;DHT22;10657;51.276;6.390;2023-08-30T10:32:40;15.40;99.90
20998;DHT22;10657;51.276;6.390;2023-08-30T10:35:14;15.40;99.90
20998;DHT22;10657;51.276;6.390;2023-08-30T10:37:41;15.30;99.90
20998;DHT22;10657;51.276;6.390;2023-08-30T10:40:09;15.40;99.90
20998;DHT22;10657;51.276;6.390;2023-08-30T10:42:36;15.30;99.90
20998;DHT22;10657;51.276;6.390;2023-08-30T10:45:07;15.20;99.90
20998;DHT22;10657;51.276;6.390;2023-08-30T10:47:37;15.40;99.90
20998;DHT22;10657;51.276;6.390;2023-08-30T10:50:10;15.50;99.90
20998;DHT22;10657;51.276;6.390;2023-08-30T10:52:37;15.50;99.90
20998;DHT22;10657;51.276;6.390;2023-08-30T10:55:14;15.60;99.90
20998;DHT22;10657;51.276;6.390;2023-08-30T10:57:43;15.60;99.90
20998;DHT22;10657;51.276;6.390;2023-08-30T11:02:45;15.60;99.90
20998;DHT22;10657;51.276;6.390;2023-08-30T11:05:13;15.60;99.90
20998;DHT22;10657;51.276;6.390;2023-08-30T11:07:39;15.60;99.90
20998;DHT22;10657;51.276;6.390;2023-08-30T11:10:06;15.70;99.90
20998;DHT22;10657;51.276;6.390;2023-08-30T11:12:33;15.70;99.90
20998;DHT22;10657;51.276;6.390;2023-08-30T11:15:00;15.70;99.90
20998;DHT22;10657;51.276;6.390;2023-08-30T11:17:28;15.70;99.90
20998;DHT22;10657;51.276;6.390;2023-08-30T11:20:04;15.60;99.90
20998;DHT22;10657;51.276;6.390;2023-08-30T11:22:32;15.60;99.90
20998;DHT22;10657;51.276;6.390;2023-08-30T11:24:58;15.60;99.90
20998;DHT22;10657;51.276;6.390;2023-08-30T11:27:25;15.60;99.90
20998;DHT22;10657;51.276;6.390;2023-08-30T11:29:52;15.60;99.90
20998;DHT22;10657;51.276;6.390;2023-08-30T11:32:19;15.80;99.90
20998;DHT22;10657;51.276;6.390;2023-08-30T11:34:56;15.80;99.90
20998;DHT22;10657;51.276;6.390;2023-08-30T11:37:25;15.80;99.90
20998;DHT22;10657;51.276;6.390;2023-08-30T11:39:53;15.80;99.90
20998;DHT22;10657;51.276;6.390;2023-08-30T11:42:19;15.80;99.90
20998;DHT22;10657;51.276;6.390;2023-08-30T11:44:47;15.70;99.90
20998;DHT22;10657;51.276;6.390;2023-08-30T11:47:34;15.70;99.90
20998;DHT22;10657;51.276;6.390;2023-08-30T11:50:01;15.70;99.90
20998;DHT22;10657;51.276;6.390;2023-08-30T11:52:28;15.80;99.90
20998;DHT22;10657;51.276;6.390;2023-08-30T11:54:55;15.80;99.90
20998;DHT22;10657;51.276;6.390;2023-08-30T11:57:22;15.80;99.90
20998;DHT22;10657;51.276;6.390;2023-08-30T11:59:49;15.90;99.90
20998;DHT22;10657;51.276;6.390;2023-08-30T12:02:18;15.90;99.90
20998;DHT22;10657;51.276;6.390;2023-08-30T12:04:46;15.80;99.90
20998;DHT22;10657;51.276;6.390;2023-08-30T12:07:23;15.70;99.90
20998;DHT22;10657;51.276;6.390;2023-08-30T12:09:50;15.70;99.90
20998;DHT22;10657;51.276;6.390;2023-08-30T12:12:17;15.70;99.90
20998;DHT22;10657;51.276;6.390;2023-08-30T12:14:43;15.80;99.90
20998;DHT22;10657;51.276;6.390;2023-08-30T12:17:10;15.80;99.90
20998;DHT22;10657;51.276;6.390;2023-08-30T12:19:38;15.70;99.90
20998;DHT22;10657;51.276;6.390;2023-08-30T12:22:07;15.80;99.90
20998;DHT22;10657;51.276;6.390;2023-08-30T12:24:44;15.70;99.90
20998;DHT22;10657;51.276;6.390;2023-08-30T12:27:11;15.80;99.90
20998;DHT22;10657;51.276;6.390;2023-08-30T12:29:38;15.80;99.90
20998;DHT22;10657;51.276;6.390;2023-08-30T12:32:05;15.70;99.90
20998;DHT22;10657;51.276;6.390;2023-08-30T12:34:32;15.80;99.90
20998;DHT22;10657;51.276;6.390;2023-08-30T12:36:58;15.80;99.90
20998;DHT22;10657;51.276;6.390;2023-08-30T12:39:29;15.80;99.90
20998;DHT22;10657;51.276;6.390;2023-08-30T12:41:55;15.80;99.90
20998;DHT22;10657;51.276;6.390;2023-08-30T12:44:22;15.80;99.90
20998;DHT22;10657;51.276;6.390;2023-08-30T12:46:49;16.00;99.90
20998;DHT22;10657;51.276;6.390;2023-08-30T12:49:17;16.00;99.90
20998;DHT22;10657;51.276;6.390;2023-08-30T12:51:43;16.20;99.90
20998;DHT22;10657;51.276;6.390;2023-08-30T12:54:10;16.20;99.90
20998;DHT22;10657;51.276;6.390;2023-08-30T12:56:37;16.10;99.90
20998;DHT22;10657;51.276;6.390;2023-08-30T12:59:03;16.20;99.90
20998;DHT22;10657;51.276;6.390;2023-08-30T13:01:30;16.20;99.90
20998;DHT22;10657;51.276;6.390;2023-08-30T13:03:57;16.20;99.90
20998;DHT22;10657;51.276;6.390;2023-08-30T13:06:23;16.30;99.90
20998;DHT22;10657;51.276;6.390;2023-08-30T13:08:50;16.30;99.90
20998;DHT22;10657;51.276;6.390;2023-08-30T13:11:17;16.30;99.90
20998;DHT22;10657;51.276;6.390;2023-08-30T13:13:43;16.20;99.90
20998;DHT22;10657;51.276;6.390;2023-08-30T13:16:10;16.10;99.90
20998;DHT22;10657;51.276;6.390;2023-08-30T13:18:37;16.30;99.90
20998;DHT22;10657;51.276;6.390;2023-08-30T13:21:04;16.30;99.90
20998;DHT22;10657;51.276;6.390;2023-08-30T13:23:33;16.20;99.90
20998;DHT22;10657;51.276;6.390;2023-08-30T13:25:59;16.40;99.90
20998;DHT22;10657;51.276;6.390;2023-08-30T13:28:26;16.40;99.90
20998;DHT22;10657;51.276;6.390;2023-08-30T13:30:53;16.30;99.90
20998;DHT22;10657;51.276;6.390;2023-08-30T13:33:21;16.30;99.90
20998;DHT22;10657;51.276;6.390;2023-08-30T13:35:50;16.40;99.90
20998;DHT22;10657;51.276;6.390;2023-08-30T13:38:20;16.40;99.90
20998;DHT22;10657;51.276;6.390;2023-08-30T13:40:46;16.40;99.90
20998;DHT22;10657;51.276;6.390;2023-08-30T13:43:13;16.40;99.90
20998;DHT22;10657;51.276;6.390;2023-08-30T13:45:40;16.30;99.90
20998;DHT22;10657;51.276;6.390;2023-08-30T13:48:07;16.30;99.90
20998;DHT22;10657;51.276;6.390;2023-08-30T13:50:34;16.40;99.90
20998;DHT22;10657;51.276;6.390;2023-08-30T13:53:07;16.20;99.90
20998;DHT22;10657;51.276;6.390;2023-08-30T13:55:34;16.20;99.90
20998;DHT22;10657;51.276;6.390;2023-08-30T13:58:00;16.20;99.90
20998;DHT22;10657;51.276;6.390;2023-08-30T14:00:27;16.20;99.90
20998;DHT22;10657;51.276;6.390;2023-08-30T14:02:53;16.10;99.90
20998;DHT22;10657;51.276;6.390;2023-08-30T14:05:20;15.90;99.90
20998;DHT22;10657;51.276;6.390;2023-08-30T14:07:47;15.80;99.90
20998;DHT22;10657;51.276;6.390;2023-08-30T14:10:14;15.70;99.90
20998;DHT22;10657;51.276;6.390;2023-08-30T14:12:47;15.80;99.90
20998;DHT22;10657;51.276;6.390;2023-08-30T14:15:13;15.80;99.90
20998;DHT22;10657;51.276;6.390;2023-08-30T14:17:41;15.80;99.90
20998;DHT22;10657;51.276;6.390;2023-08-30T14:20:09;15.80;99.90
20998;DHT22;10657;51.276;6.390;2023-08-30T14:22:36;15.70;99.90
20998;DHT22;10657;51.276;6.390;2023-08-30T14:25:03;15.70;99.90
20998;DHT22;10657;51.276;6.390;2023-08-30T14:27:34;15.80;99.90
20998;DHT22;10657;51.276;6.390;2023-08-30T14:30:01;15.80;99.90
20998;DHT22;10657;51.276;6.390;2023-08-30T14:32:28;15.80;99.90
20998;DHT22;10657;51.276;6.390;2023-08-30T14:34:54;15.80;99.90
20998;DHT22;10657;51.276;6.390;2023-08-30T14:37:21;15.90;99.90
20998;DHT22;10657;51.276;6.390;2023-08-30T14:39:48;15.90;99.90
20998;DHT22;10657;51.276;6.390;2023-08-30T14:42:14;16.00;99.90
20998;DHT22;10657;51.276;6.390;2023-08-30T14:44:41;16.10;99.90
20998;DHT22;10657;51.276;6.390;2023-08-30T14:47:08;16.20;99.90
20998;DHT22;10657;51.276;6.390;2023-08-30T14:49:35;16.10;99.90
20998;DHT22;10657;51.276;6.390;2023-08-30T14:52:01;16.20;99.90
20998;DHT22;10657;51.276;6.390;2023-08-30T14:54:28;16.40;99.90
20998;DHT22;10657;51.276;6.390;2023-08-30T14:56:55;16.60;99.90
20998;DHT22;10657;51.276;6.390;2023-08-30T14:59:22;16.90;99.90
20998;DHT22;10657;51.276;6.390;2023-08-30T15:01:48;17.80;99.90
20998;DHT22;10657;51.276;6.390;2023-08-30T15:04:15;18.10;99.90
20998;DHT22;10657;51.276;6.390;2023-08-30T15:06:42;18.60;99.90
20998;DHT22;10657;51.276;6.390;2023-08-30T15:09:12;19.00;99.90
20998;DHT22;10657;51.276;6.390;2023-08-30T15:11:42;19.10;99.90
20998;DHT22;10657;51.276;6.390;2023-08-30T15:14:09;19.40;99.90
20998;DHT22;10657;51.276;6.390;2023-08-30T15:16:36;19.80;99.90
20998;DHT22;10657;51.276;6.390;2023-08-30T15:19:03;19.60;99.90
20998;DHT22;10657;51.276;6.390;2023-08-30T15:21:30;19.40;99.90
20998;DHT22;10657;51.276;6.390;2023-08-30T15:23:57;18.90;99.90
20998;DHT22;10657;51.276;6.390;2023-08-30T15:26:23;18.80;99.90
20998;DHT22;10657;51.276;6.390;2023-08-30T15:28:51;19.10;99.90
20998;DHT22;10657;51.276;6.390;2023-08-30T15:31:18;18.90;99.90
20998;DHT22;10657;51.276;6.390;2023-08-30T15:33:48;19.00;99.90
20998;DHT22;10657;51.276;6.390;2023-08-30T15:36:15;19.40;99.90
20998;DHT22;10657;51.276;6.390;2023-08-30T15:38:42;20.00;99.90
20998;DHT22;10657;51.276;6.390;2023-08-30T15:41:12;20.20;99.90
20998;DHT22;10657;51.276;6.390;2023-08-30T15:43:39;20.50;99.90